sensor_id;sensor_type;location;lat;lon;timestamp;P1;durP1;ratioP1;P2;durP2;ratioP2
51943;SDS011;37969;53.132;6.370;2023-07-02T00:00:33;28.20;;;9.55;;
51943;SDS011;37969;53.132;6.370;2023-07-02T00:03:01;29.88;;;10.30;;
51943;SDS011;37969;53.132;6.370;2023-07-02T00:05:28;23.33;;;9.70;;
51943;SDS011;37969;53.132;6.370;2023-07-02T00:07:54;29.70;;;10.38;;
51943;SDS011;37969;53.132;6.370;2023-07-02T00:10:20;31.45;;;10.00;;
51943;SDS011;37969;53.132;6.370;2023-07-02T00:12:46;26.80;;;9.82;;
51943;SDS011;37969;53.132;6.370;2023-07-02T00:15:12;31.67;;;9.95;;
51943;SDS011;37969;53.132;6.370;2023-07-02T00:17:39;28.65;;;9.75;;
51943;SDS011;37969;53.132;6.370;2023-07-02T00:20:07;27.77;;;10.18;;
51943;SDS011;37969;53.132;6.370;2023-07-02T00:22:39;26.85;;;10.15;;
51943;SDS011;37969;53.132;6.370;2023-07-02T00:25:09;26.20;;;9.48;;
51943;SDS011;37969;53.132;6.370;2023-07-02T00:27:36;32.42;;;10.35;;
51943;SDS011;37969;53.132;6.370;2023-07-02T00:30:03;28.08;;;10.23;;
51943;SDS011;37969;53.132;6.370;2023-07-02T00:32:29;29.63;;;10.25;;
51943;SDS011;37969;53.132;6.370;2023-07-02T00:34:56;31.98;;;10.88;;
51943;SDS011;37969;53.132;6.370;2023-07-02T00:37:22;28.55;;;10.50;;
51943;SDS011;37969;53.132;6.370;2023-07-02T00:39:48;29.25;;;10.57;;
51943;SDS011;37969;53.132;6.370;2023-07-02T00:42:14;33.25;;;10.80;;
51943;SDS011;37969;53.132;6.370;2023-07-02T00:44:41;28.67;;;10.90;;
51943;SDS011;37969;53.132;6.370;2023-07-02T00:47:09;31.48;;;10.07;;
51943;SDS011;37969;53.132;6.370;2023-07-02T00:49:35;30.55;;;10.30;;
51943;SDS011;37969;53.132;6.370;2023-07-02T00:52:02;30.52;;;10.52;;
51943;SDS011;37969;53.132;6.370;2023-07-02T00:54:28;33.90;;;11.20;;
51943;SDS011;37969;53.132;6.370;2023-07-02T00:56:54;28.40;;;10.20;;
51943;SDS011;37969;53.132;6.370;2023-07-02T00:59:21;31.73;;;10.77;;
51943;SDS011;37969;53.132;6.370;2023-07-02T01:01:47;39.90;;;11.35;;
51943;SDS011;37969;53.132;6.370;2023-07-02T01:04:17;33.55;;;10.10;;
51943;SDS011;37969;53.132;6.370;2023-07-02T01:06:43;35.05;;;11.40;;
51943;SDS011;37969;53.132;6.370;2023-07-02T01:09:10;31.58;;;11.15;;
51943;SDS011;37969;53.132;6.370;2023-07-02T01:11:37;36.35;;;11.15;;
51943;SDS011;37969;53.132;6.370;2023-07-02T01:14:05;32.13;;;10.85;;
51943;SDS011;37969;53.132;6.370;2023-07-02T01:16:33;31.08;;;11.15;;
51943;SDS011;37969;53.132;6.370;2023-07-02T01:19:01;32.22;;;10.70;;
51943;SDS011;37969;53.132;6.370;2023-07-02T01:21:28;35.22;;;11.63;;
51943;SDS011;37969;53.132;6.370;2023-07-02T01:23:54;33.33;;;11.43;;
51943;SDS011;37969;53.132;6.370;2023-07-02T01:26:21;33.67;;;11.00;;
51943;SDS011;37969;53.132;6.370;2023-07-02T01:28:47;32.10;;;11.40;;
51943;SDS011;37969;53.132;6.370;2023-07-02T01:31:13;40.08;;;11.38;;
51943;SDS011;37969;53.132;6.370;2023-07-02T01:33:40;40.17;;;12.05;;
51943;SDS011;37969;53.132;6.370;2023-07-02T01:36:06;39.58;;;11.68;;
51943;SDS011;37969;53.132;6.370;2023-07-02T01:38:32;30.95;;;10.90;;
51943;SDS011;37969;53.132;6.370;2023-07-02T01:40:59;37.35;;;11.40;;
51943;SDS011;37969;53.132;6.370;2023-07-02T01:43:25;36.40;;;12.40;;
51943;SDS011;37969;53.132;6.370;2023-07-02T01:45:51;39.03;;;10.95;;
51943;SDS011;37969;53.132;6.370;2023-07-02T01:48:17;42.25;;;12.15;;
51943;SDS011;37969;53.132;6.370;2023-07-02T01:50:43;33.63;;;11.60;;
51943;SDS011;37969;53.132;6.370;2023-07-02T01:53:09;41.40;;;12.00;;
51943;SDS011;37969;53.132;6.370;2023-07-02T01:55:35;39.30;;;11.70;;
51943;SDS011;37969;53.132;6.370;2023-07-02T01:58:02;39.20;;;12.32;;
51943;SDS011;37969;53.132;6.370;2023-07-02T02:00:28;33.67;;;11.23;;
51943;SDS011;37969;53.132;6.370;2023-07-02T02:02:55;35.47;;;11.73;;
51943;SDS011;37969;53.132;6.370;2023-07-02T02:05:21;33.50;;;11.73;;
51943;SDS011;37969;53.132;6.370;2023-07-02T02:07:47;39.80;;;12.43;;
51943;SDS011;37969;53.132;6.370;2023-07-02T02:10:13;33.47;;;11.60;;
51943;SDS011;37969;53.132;6.370;2023-07-02T02:12:40;41.92;;;13.90;;
51943;SDS011;37969;53.132;6.370;2023-07-02T02:15:06;35.92;;;11.50;;
51943;SDS011;37969;53.132;6.370;2023-07-02T02:17:32;35.85;;;11.98;;
51943;SDS011;37969;53.132;6.370;2023-07-02T02:20:00;34.08;;;12.07;;
51943;SDS011;37969;53.132;6.370;2023-07-02T02:22:26;31.20;;;12.23;;
51943;SDS011;37969;53.132;6.370;2023-07-02T02:24:52;40.92;;;12.68;;
51943;SDS011;37969;53.132;6.370;2023-07-02T02:27:18;34.78;;;11.23;;
51943;SDS011;37969;53.132;6.370;2023-07-02T02:29:44;33.10;;;11.68;;
51943;SDS011;37969;53.132;6.370;2023-07-02T02:32:11;38.92;;;12.32;;
51943;SDS011;37969;53.132;6.370;2023-07-02T02:34:37;47.13;;;12.40;;
51943;SDS011;37969;53.132;6.370;2023-07-02T02:37:03;44.28;;;13.02;;
51943;SDS011;37969;53.132;6.370;2023-07-02T02:39:30;39.47;;;11.82;;
51943;SDS011;37969;53.132;6.370;2023-07-02T02:41:56;34.17;;;11.70;;
51943;SDS011;37969;53.132;6.370;2023-07-02T02:44:22;42.58;;;12.82;;
51943;SDS011;37969;53.132;6.370;2023-07-02T02:46:48;40.85;;;12.82;;
51943;SDS011;37969;53.132;6.370;2023-07-02T02:49:14;39.15;;;11.65;;
51943;SDS011;37969;53.132;6.370;2023-07-02T02:51:41;33.60;;;12.32;;
51943;SDS011;37969;53.132;6.370;2023-07-02T02:54:07;33.25;;;12.15;;
51943;SDS011;37969;53.132;6.370;2023-07-02T02:56:33;38.53;;;12.10;;
51943;SDS011;37969;53.132;6.370;2023-07-02T02:58:59;38.90;;;12.80;;
51943;SDS011;37969;53.132;6.370;2023-07-02T03:01:25;42.90;;;12.82;;
51943;SDS011;37969;53.132;6.370;2023-07-02T03:03:57;32.65;;;11.73;;
51943;SDS011;37969;53.132;6.370;2023-07-02T03:06:23;48.75;;;14.05;;
51943;SDS011;37969;53.132;6.370;2023-07-02T03:08:50;42.55;;;12.60;;
51943;SDS011;37969;53.132;6.370;2023-07-02T03:11:16;42.05;;;12.38;;
51943;SDS011;37969;53.132;6.370;2023-07-02T03:13:42;39.65;;;13.02;;
51943;SDS011;37969;53.132;6.370;2023-07-02T03:16:08;35.90;;;11.80;;
51943;SDS011;37969;53.132;6.370;2023-07-02T03:18:34;32.17;;;11.55;;
51943;SDS011;37969;53.132;6.370;2023-07-02T03:21:01;37.67;;;12.48;;
51943;SDS011;37969;53.132;6.370;2023-07-02T03:23:27;35.75;;;11.70;;
51943;SDS011;37969;53.132;6.370;2023-07-02T03:25:53;42.22;;;12.57;;
51943;SDS011;37969;53.132;6.370;2023-07-02T03:28:19;42.92;;;11.82;;
51943;SDS011;37969;53.132;6.370;2023-07-02T03:30:45;34.17;;;11.60;;
51943;SDS011;37969;53.132;6.370;2023-07-02T03:33:11;41.15;;;12.77;;
51943;SDS011;37969;53.132;6.370;2023-07-02T03:35:37;35.95;;;11.63;;
51943;SDS011;37969;53.132;6.370;2023-07-02T03:38:04;31.25;;;11.80;;
51943;SDS011;37969;53.132;6.370;2023-07-02T03:40:31;40.50;;;12.48;;
51943;SDS011;37969;53.132;6.370;2023-07-02T03:42:57;44.70;;;12.60;;
51943;SDS011;37969;53.132;6.370;2023-07-02T03:45:24;35.45;;;11.63;;
51943;SDS011;37969;53.132;6.370;2023-07-02T03:47:50;37.60;;;11.60;;
51943;SDS011;37969;53.132;6.370;2023-07-02T03:50:16;48.40;;;12.95;;
51943;SDS011;37969;53.132;6.370;2023-07-02T03:52:43;38.63;;;11.73;;
51943;SDS011;37969;53.132;6.370;2023-07-02T03:55:09;32.85;;;11.52;;
51943;SDS011;37969;53.132;6.370;2023-07-02T03:57:35;31.75;;;12.68;;
51943;SDS011;37969;53.132;6.370;2023-07-02T04:00:01;41.05;;;13.80;;
51943;SDS011;37969;53.132;6.370;2023-07-02T04:02:30;44.05;;;12.10;;
51943;SDS011;37969;53.132;6.370;2023-07-02T04:04:56;36.53;;;12.20;;
51943;SDS011;37969;53.132;6.370;2023-07-02T04:07:23;35.53;;;10.90;;
51943;SDS011;37969;53.132;6.370;2023-07-02T04:09:49;34.67;;;11.48;;
51943;SDS011;37969;53.132;6.370;2023-07-02T04:12:15;36.38;;;11.60;;
51943;SDS011;37969;53.132;6.370;2023-07-02T04:14:41;32.13;;;11.63;;
51943;SDS011;37969;53.132;6.370;2023-07-02T04:17:09;34.95;;;12.02;;
51943;SDS011;37969;53.132;6.370;2023-07-02T04:19:35;38.88;;;11.25;;
51943;SDS011;37969;53.132;6.370;2023-07-02T04:22:01;44.75;;;11.60;;
51943;SDS011;37969;53.132;6.370;2023-07-02T04:24:28;38.70;;;11.82;;
51943;SDS011;37969;53.132;6.370;2023-07-02T04:26:54;36.45;;;11.40;;
51943;SDS011;37969;53.132;6.370;2023-07-02T04:29:20;34.70;;;10.80;;
51943;SDS011;37969;53.132;6.370;2023-07-02T04:31:46;39.53;;;11.15;;
51943;SDS011;37969;53.132;6.370;2023-07-02T04:34:12;28.65;;;10.55;;
51943;SDS011;37969;53.132;6.370;2023-07-02T04:36:38;33.00;;;10.73;;
51943;SDS011;37969;53.132;6.370;2023-07-02T04:39:04;33.72;;;11.27;;
51943;SDS011;37969;53.132;6.370;2023-07-02T04:41:31;35.88;;;10.65;;
51943;SDS011;37969;53.132;6.370;2023-07-02T04:43:57;38.20;;;11.50;;
51943;SDS011;37969;53.132;6.370;2023-07-02T04:46:24;33.25;;;11.00;;
51943;SDS011;37969;53.132;6.370;2023-07-02T04:48:50;36.25;;;10.93;;
51943;SDS011;37969;53.132;6.370;2023-07-02T04:51:16;35.40;;;10.32;;
51943;SDS011;37969;53.132;6.370;2023-07-02T04:53:42;29.08;;;9.90;;
51943;SDS011;37969;53.132;6.370;2023-07-02T04:56:08;28.17;;;9.95;;
51943;SDS011;37969;53.132;6.370;2023-07-02T04:58:34;33.67;;;9.20;;
51943;SDS011;37969;53.132;6.370;2023-07-02T05:01:01;31.65;;;8.98;;
51943;SDS011;37969;53.132;6.370;2023-07-02T05:03:27;26.73;;;8.45;;
51943;SDS011;37969;53.132;6.370;2023-07-02T05:05:53;24.52;;;8.20;;
51943;SDS011;37969;53.132;6.370;2023-07-02T05:08:19;23.88;;;7.55;;
51943;SDS011;37969;53.132;6.370;2023-07-02T05:10:45;26.17;;;8.70;;
51943;SDS011;37969;53.132;6.370;2023-07-02T05:13:11;21.70;;;7.93;;
51943;SDS011;37969;53.132;6.370;2023-07-02T05:15:38;27.63;;;8.55;;
51943;SDS011;37969;53.132;6.370;2023-07-02T05:18:04;26.98;;;8.45;;
51943;SDS011;37969;53.132;6.370;2023-07-02T05:20:31;27.20;;;9.05;;
51943;SDS011;37969;53.132;6.370;2023-07-02T05:22:58;27.42;;;8.00;;
51943;SDS011;37969;53.132;6.370;2023-07-02T05:25:24;21.88;;;7.88;;
51943;SDS011;37969;53.132;6.370;2023-07-02T05:27:50;24.23;;;8.05;;
51943;SDS011;37969;53.132;6.370;2023-07-02T05:30:16;28.88;;;8.68;;
51943;SDS011;37969;53.132;6.370;2023-07-02T05:32:42;28.23;;;9.65;;
51943;SDS011;37969;53.132;6.370;2023-07-02T05:35:08;24.90;;;8.00;;
51943;SDS011;37969;53.132;6.370;2023-07-02T05:37:35;19.60;;;7.30;;
51943;SDS011;37969;53.132;6.370;2023-07-02T05:40:01;28.55;;;8.95;;
51943;SDS011;37969;53.132;6.370;2023-07-02T05:42:28;25.30;;;7.80;;
51943;SDS011;37969;53.132;6.370;2023-07-02T05:44:54;27.63;;;9.02;;
51943;SDS011;37969;53.132;6.370;2023-07-02T05:47:20;25.80;;;8.57;;
51943;SDS011;37969;53.132;6.370;2023-07-02T05:49:46;27.25;;;8.43;;
51943;SDS011;37969;53.132;6.370;2023-07-02T05:52:12;32.22;;;8.48;;
51943;SDS011;37969;53.132;6.370;2023-07-02T05:54:39;23.60;;;8.00;;
51943;SDS011;37969;53.132;6.370;2023-07-02T05:57:06;27.98;;;8.80;;
51943;SDS011;37969;53.132;6.370;2023-07-02T05:59:32;33.90;;;9.25;;
51943;SDS011;37969;53.132;6.370;2023-07-02T06:01:58;28.35;;;7.88;;
51943;SDS011;37969;53.132;6.370;2023-07-02T06:04:24;25.67;;;8.10;;
51943;SDS011;37969;53.132;6.370;2023-07-02T06:06:51;31.60;;;9.57;;
51943;SDS011;37969;53.132;6.370;2023-07-02T06:09:17;24.20;;;8.65;;
51943;SDS011;37969;53.132;6.370;2023-07-02T06:11:43;30.58;;;8.70;;
51943;SDS011;37969;53.132;6.370;2023-07-02T06:14:09;28.65;;;8.70;;
51943;SDS011;37969;53.132;6.370;2023-07-02T06:16:35;27.65;;;8.73;;
51943;SDS011;37969;53.132;6.370;2023-07-02T06:19:01;23.67;;;8.50;;
51943;SDS011;37969;53.132;6.370;2023-07-02T06:21:27;21.63;;;7.53;;
51943;SDS011;37969;53.132;6.370;2023-07-02T06:23:56;24.83;;;7.32;;
51943;SDS011;37969;53.132;6.370;2023-07-02T06:26:23;27.33;;;8.00;;
51943;SDS011;37969;53.132;6.370;2023-07-02T06:28:50;26.70;;;7.65;;
51943;SDS011;37969;53.132;6.370;2023-07-02T06:31:16;26.98;;;7.63;;
51943;SDS011;37969;53.132;6.370;2023-07-02T06:33:42;24.85;;;8.40;;
51943;SDS011;37969;53.132;6.370;2023-07-02T06:36:08;27.20;;;8.43;;
51943;SDS011;37969;53.132;6.370;2023-07-02T06:38:34;20.55;;;6.60;;
51943;SDS011;37969;53.132;6.370;2023-07-02T06:41:00;22.17;;;6.30;;
51943;SDS011;37969;53.132;6.370;2023-07-02T06:43:27;19.15;;;5.28;;
51943;SDS011;37969;53.132;6.370;2023-07-02T06:45:53;17.90;;;6.00;;
51943;SDS011;37969;53.132;6.370;2023-07-02T06:48:19;23.92;;;5.57;;
51943;SDS011;37969;53.132;6.370;2023-07-02T06:50:47;19.15;;;6.10;;
51943;SDS011;37969;53.132;6.370;2023-07-02T06:53:13;19.65;;;5.38;;
51943;SDS011;37969;53.132;6.370;2023-07-02T06:55:39;16.40;;;5.15;;
51943;SDS011;37969;53.132;6.370;2023-07-02T06:58:06;15.45;;;4.22;;
51943;SDS011;37969;53.132;6.370;2023-07-02T07:00:32;13.32;;;4.28;;
51943;SDS011;37969;53.132;6.370;2023-07-02T07:03:03;18.73;;;4.78;;
51943;SDS011;37969;53.132;6.370;2023-07-02T07:05:30;22.25;;;4.93;;
51943;SDS011;37969;53.132;6.370;2023-07-02T07:07:56;13.70;;;4.35;;
51943;SDS011;37969;53.132;6.370;2023-07-02T07:10:23;14.05;;;4.28;;
51943;SDS011;37969;53.132;6.370;2023-07-02T07:12:49;20.50;;;4.93;;
51943;SDS011;37969;53.132;6.370;2023-07-02T07:15:16;15.18;;;4.28;;
51943;SDS011;37969;53.132;6.370;2023-07-02T07:17:42;18.38;;;4.32;;
51943;SDS011;37969;53.132;6.370;2023-07-02T07:20:10;18.17;;;4.78;;
51943;SDS011;37969;53.132;6.370;2023-07-02T07:22:37;12.87;;;4.27;;
51943;SDS011;37969;53.132;6.370;2023-07-02T07:25:04;24.50;;;5.32;;
51943;SDS011;37969;53.132;6.370;2023-07-02T07:27:30;18.15;;;4.40;;
51943;SDS011;37969;53.132;6.370;2023-07-02T07:29:56;15.85;;;4.40;;
51943;SDS011;37969;53.132;6.370;2023-07-02T07:32:22;16.95;;;4.88;;
51943;SDS011;37969;53.132;6.370;2023-07-02T07:34:48;15.98;;;5.55;;
51943;SDS011;37969;53.132;6.370;2023-07-02T07:37:14;13.02;;;4.20;;
51943;SDS011;37969;53.132;6.370;2023-07-02T07:39:41;20.10;;;4.80;;
51943;SDS011;37969;53.132;6.370;2023-07-02T07:42:07;23.15;;;4.85;;
51943;SDS011;37969;53.132;6.370;2023-07-02T07:44:33;15.15;;;4.90;;
51943;SDS011;37969;53.132;6.370;2023-07-02T07:46:59;23.70;;;4.85;;
51943;SDS011;37969;53.132;6.370;2023-07-02T07:49:26;18.85;;;4.05;;
51943;SDS011;37969;53.132;6.370;2023-07-02T07:51:52;15.85;;;4.43;;
51943;SDS011;37969;53.132;6.370;2023-07-02T07:54:18;17.13;;;5.22;;
51943;SDS011;37969;53.132;6.370;2023-07-02T07:56:44;19.25;;;5.05;;
51943;SDS011;37969;53.132;6.370;2023-07-02T07:59:10;17.75;;;4.43;;
51943;SDS011;37969;53.132;6.370;2023-07-02T08:01:39;16.83;;;4.50;;
51943;SDS011;37969;53.132;6.370;2023-07-02T08:04:06;19.80;;;4.90;;
51943;SDS011;37969;53.132;6.370;2023-07-02T08:06:32;18.05;;;4.38;;
51943;SDS011;37969;53.132;6.370;2023-07-02T08:08:58;13.73;;;4.60;;
51943;SDS011;37969;53.132;6.370;2023-07-02T08:11:25;13.40;;;4.43;;
51943;SDS011;37969;53.132;6.370;2023-07-02T08:13:51;16.15;;;4.32;;
51943;SDS011;37969;53.132;6.370;2023-07-02T08:16:17;14.18;;;4.85;;
51943;SDS011;37969;53.132;6.370;2023-07-02T08:18:43;14.13;;;4.38;;
51943;SDS011;37969;53.132;6.370;2023-07-02T08:21:10;15.18;;;4.50;;
51943;SDS011;37969;53.132;6.370;2023-07-02T08:23:36;15.27;;;4.30;;
51943;SDS011;37969;53.132;6.370;2023-07-02T08:26:03;12.52;;;4.88;;
51943;SDS011;37969;53.132;6.370;2023-07-02T08:28:29;18.05;;;5.25;;
51943;SDS011;37969;53.132;6.370;2023-07-02T08:30:55;17.10;;;5.22;;
51943;SDS011;37969;53.132;6.370;2023-07-02T08:33:21;17.67;;;5.68;;
51943;SDS011;37969;53.132;6.370;2023-07-02T08:35:48;12.80;;;5.93;;
51943;SDS011;37969;53.132;6.370;2023-07-02T08:38:14;14.60;;;5.10;;
51943;SDS011;37969;53.132;6.370;2023-07-02T08:40:40;20.38;;;5.95;;
51943;SDS011;37969;53.132;6.370;2023-07-02T08:43:06;21.15;;;4.82;;
51943;SDS011;37969;53.132;6.370;2023-07-02T08:45:32;21.80;;;5.90;;
51943;SDS011;37969;53.132;6.370;2023-07-02T08:47:59;19.08;;;5.20;;
51943;SDS011;37969;53.132;6.370;2023-07-02T08:50:25;20.63;;;5.45;;
51943;SDS011;37969;53.132;6.370;2023-07-02T08:52:52;21.13;;;5.97;;
51943;SDS011;37969;53.132;6.370;2023-07-02T08:55:19;22.60;;;6.13;;
51943;SDS011;37969;53.132;6.370;2023-07-02T08:57:49;15.15;;;4.80;;
51943;SDS011;37969;53.132;6.370;2023-07-02T09:00:16;18.73;;;4.93;;
51943;SDS011;37969;53.132;6.370;2023-07-02T09:02:43;19.80;;;5.10;;
51943;SDS011;37969;53.132;6.370;2023-07-02T09:05:10;15.82;;;4.75;;
51943;SDS011;37969;53.132;6.370;2023-07-02T09:07:45;17.55;;;4.82;;
51943;SDS011;37969;53.132;6.370;2023-07-02T09:10:11;15.18;;;5.25;;
51943;SDS011;37969;53.132;6.370;2023-07-02T09:12:37;16.88;;;5.00;;
51943;SDS011;37969;53.132;6.370;2023-07-02T09:15:05;20.20;;;5.82;;
51943;SDS011;37969;53.132;6.370;2023-07-02T09:17:32;16.58;;;4.72;;
51943;SDS011;37969;53.132;6.370;2023-07-02T09:20:00;17.30;;;5.18;;
51943;SDS011;37969;53.132;6.370;2023-07-02T09:22:26;14.25;;;4.82;;
51943;SDS011;37969;53.132;6.370;2023-07-02T09:24:53;13.57;;;3.97;;
51943;SDS011;37969;53.132;6.370;2023-07-02T09:27:20;14.75;;;4.35;;
51943;SDS011;37969;53.132;6.370;2023-07-02T09:29:52;14.95;;;4.60;;
51943;SDS011;37969;53.132;6.370;2023-07-02T09:32:25;11.90;;;4.28;;
51943;SDS011;37969;53.132;6.370;2023-07-02T09:34:53;19.33;;;4.30;;
51943;SDS011;37969;53.132;6.370;2023-07-02T09:37:20;16.92;;;4.40;;
51943;SDS011;37969;53.132;6.370;2023-07-02T09:39:48;12.70;;;4.28;;
51943;SDS011;37969;53.132;6.370;2023-07-02T09:42:16;14.27;;;4.07;;
51943;SDS011;37969;53.132;6.370;2023-07-02T09:44:44;10.13;;;3.60;;
51943;SDS011;37969;53.132;6.370;2023-07-02T09:47:11;16.92;;;3.85;;
51943;SDS011;37969;53.132;6.370;2023-07-02T09:49:39;10.55;;;4.05;;
51943;SDS011;37969;53.132;6.370;2023-07-02T09:52:06;11.05;;;3.03;;
51943;SDS011;37969;53.132;6.370;2023-07-02T09:54:33;12.95;;;3.80;;
51943;SDS011;37969;53.132;6.370;2023-07-02T09:56:59;18.35;;;4.65;;
51943;SDS011;37969;53.132;6.370;2023-07-02T09:59:26;9.35;;;4.13;;
51943;SDS011;37969;53.132;6.370;2023-07-02T10:01:52;9.82;;;4.13;;
51943;SDS011;37969;53.132;6.370;2023-07-02T10:04:19;23.63;;;5.00;;
51943;SDS011;37969;53.132;6.370;2023-07-02T10:06:52;16.55;;;4.60;;
51943;SDS011;37969;53.132;6.370;2023-07-02T10:09:20;21.30;;;4.78;;
51943;SDS011;37969;53.132;6.370;2023-07-02T10:11:46;11.55;;;3.95;;
51943;SDS011;37969;53.132;6.370;2023-07-02T10:14:13;13.75;;;4.45;;
51943;SDS011;37969;53.132;6.370;2023-07-02T10:16:55;14.95;;;5.05;;
51943;SDS011;37969;53.132;6.370;2023-07-02T10:19:21;14.10;;;4.63;;
51943;SDS011;37969;53.132;6.370;2023-07-02T10:22:00;13.50;;;4.03;;
51943;SDS011;37969;53.132;6.370;2023-07-02T10:24:27;12.80;;;3.45;;
51943;SDS011;37969;53.132;6.370;2023-07-02T10:26:55;14.23;;;3.83;;
51943;SDS011;37969;53.132;6.370;2023-07-02T10:29:23;13.25;;;3.97;;
51943;SDS011;37969;53.132;6.370;2023-07-02T10:31:51;15.13;;;4.40;;
51943;SDS011;37969;53.132;6.370;2023-07-02T10:34:30;14.85;;;4.05;;
51943;SDS011;37969;53.132;6.370;2023-07-02T10:36:57;13.70;;;4.55;;
51943;SDS011;37969;53.132;6.370;2023-07-02T10:39:23;13.25;;;3.55;;
51943;SDS011;37969;53.132;6.370;2023-07-02T10:41:49;15.48;;;4.20;;
51943;SDS011;37969;53.132;6.370;2023-07-02T10:44:16;9.23;;;3.65;;
51943;SDS011;37969;53.132;6.370;2023-07-02T10:46:46;15.63;;;4.03;;
51943;SDS011;37969;53.132;6.370;2023-07-02T10:49:13;11.77;;;4.32;;
51943;SDS011;37969;53.132;6.370;2023-07-02T10:51:40;11.48;;;4.50;;
51943;SDS011;37969;53.132;6.370;2023-07-02T10:54:06;19.33;;;4.55;;
51943;SDS011;37969;53.132;6.370;2023-07-02T10:56:32;15.07;;;3.92;;
51943;SDS011;37969;53.132;6.370;2023-07-02T10:58:58;14.30;;;3.97;;
51943;SDS011;37969;53.132;6.370;2023-07-02T11:01:26;15.30;;;4.20;;
51943;SDS011;37969;53.132;6.370;2023-07-02T11:03:56;11.80;;;3.85;;
51943;SDS011;37969;53.132;6.370;2023-07-02T11:06:23;12.98;;;3.85;;
51943;SDS011;37969;53.132;6.370;2023-07-02T11:08:50;11.90;;;3.58;;
51943;SDS011;37969;53.132;6.370;2023-07-02T11:11:16;15.73;;;3.83;;
51943;SDS011;37969;53.132;6.370;2023-07-02T11:13:46;15.23;;;3.90;;
51943;SDS011;37969;53.132;6.370;2023-07-02T11:16:23;12.82;;;3.58;;
51943;SDS011;37969;53.132;6.370;2023-07-02T11:18:52;12.43;;;3.65;;
51943;SDS011;37969;53.132;6.370;2023-07-02T11:21:18;11.02;;;3.75;;
51943;SDS011;37969;53.132;6.370;2023-07-02T11:23:45;12.23;;;3.25;;
51943;SDS011;37969;53.132;6.370;2023-07-02T11:26:11;11.80;;;3.40;;
51943;SDS011;37969;53.132;6.370;2023-07-02T11:28:47;13.02;;;3.60;;
51943;SDS011;37969;53.132;6.370;2023-07-02T11:31:13;14.90;;;3.95;;
51943;SDS011;37969;53.132;6.370;2023-07-02T11:33:40;12.10;;;3.40;;
51943;SDS011;37969;53.132;6.370;2023-07-02T11:36:07;9.65;;;3.50;;
51943;SDS011;37969;53.132;6.370;2023-07-02T11:38:34;9.05;;;3.15;;
51943;SDS011;37969;53.132;6.370;2023-07-02T11:41:02;10.65;;;2.83;;
51943;SDS011;37969;53.132;6.370;2023-07-02T11:43:28;11.68;;;3.17;;
51943;SDS011;37969;53.132;6.370;2023-07-02T11:45:55;12.88;;;3.28;;
51943;SDS011;37969;53.132;6.370;2023-07-02T11:48:21;11.80;;;3.35;;
51943;SDS011;37969;53.132;6.370;2023-07-02T11:50:47;14.50;;;3.70;;
51943;SDS011;37969;53.132;6.370;2023-07-02T11:53:13;8.30;;;3.20;;
51943;SDS011;37969;53.132;6.370;2023-07-02T11:55:39;6.88;;;2.72;;
51943;SDS011;37969;53.132;6.370;2023-07-02T11:58:05;9.88;;;2.78;;
51943;SDS011;37969;53.132;6.370;2023-07-02T12:00:32;11.25;;;3.00;;
51943;SDS011;37969;53.132;6.370;2023-07-02T12:02:58;14.73;;;4.53;;
51943;SDS011;37969;53.132;6.370;2023-07-02T12:05:24;11.57;;;3.65;;
51943;SDS011;37969;53.132;6.370;2023-07-02T12:07:50;14.00;;;3.42;;
51943;SDS011;37969;53.132;6.370;2023-07-02T12:10:17;11.82;;;3.80;;
51943;SDS011;37969;53.132;6.370;2023-07-02T12:12:44;12.43;;;3.67;;
51943;SDS011;37969;53.132;6.370;2023-07-02T12:15:10;13.18;;;4.10;;
51943;SDS011;37969;53.132;6.370;2023-07-02T12:17:37;9.90;;;3.45;;
51943;SDS011;37969;53.132;6.370;2023-07-02T12:20:03;7.38;;;3.08;;
51943;SDS011;37969;53.132;6.370;2023-07-02T12:22:29;13.50;;;3.67;;
51943;SDS011;37969;53.132;6.370;2023-07-02T12:24:55;11.10;;;3.90;;
51943;SDS011;37969;53.132;6.370;2023-07-02T12:27:22;10.02;;;3.67;;
51943;SDS011;37969;53.132;6.370;2023-07-02T12:29:50;10.25;;;3.55;;
51943;SDS011;37969;53.132;6.370;2023-07-02T12:32:16;9.50;;;3.60;;
51943;SDS011;37969;53.132;6.370;2023-07-02T12:34:43;12.70;;;3.95;;
51943;SDS011;37969;53.132;6.370;2023-07-02T12:37:09;15.55;;;4.15;;
51943;SDS011;37969;53.132;6.370;2023-07-02T12:39:35;13.88;;;4.18;;
51943;SDS011;37969;53.132;6.370;2023-07-02T12:42:02;13.30;;;3.47;;
51943;SDS011;37969;53.132;6.370;2023-07-02T12:44:28;14.15;;;4.38;;
51943;SDS011;37969;53.132;6.370;2023-07-02T12:46:54;15.02;;;4.15;;
51943;SDS011;37969;53.132;6.370;2023-07-02T12:49:20;12.82;;;4.88;;
51943;SDS011;37969;53.132;6.370;2023-07-02T12:51:46;13.20;;;4.53;;
51943;SDS011;37969;53.132;6.370;2023-07-02T12:54:13;17.02;;;5.00;;
51943;SDS011;37969;53.132;6.370;2023-07-02T12:56:39;18.83;;;5.18;;
51943;SDS011;37969;53.132;6.370;2023-07-02T12:59:05;15.43;;;4.30;;
51943;SDS011;37969;53.132;6.370;2023-07-02T13:01:31;18.80;;;5.70;;
51943;SDS011;37969;53.132;6.370;2023-07-02T13:03:58;17.38;;;5.70;;
51943;SDS011;37969;53.132;6.370;2023-07-02T13:06:24;18.17;;;5.40;;
51943;SDS011;37969;53.132;6.370;2023-07-02T13:08:51;14.90;;;6.00;;
51943;SDS011;37969;53.132;6.370;2023-07-02T13:11:17;14.90;;;5.70;;
51943;SDS011;37969;53.132;6.370;2023-07-02T13:13:44;16.88;;;5.60;;
51943;SDS011;37969;53.132;6.370;2023-07-02T13:16:10;13.13;;;6.13;;
51943;SDS011;37969;53.132;6.370;2023-07-02T13:18:36;20.88;;;6.47;;
51943;SDS011;37969;53.132;6.370;2023-07-02T13:21:02;16.20;;;5.72;;
51943;SDS011;37969;53.132;6.370;2023-07-02T13:23:29;18.23;;;6.53;;
51943;SDS011;37969;53.132;6.370;2023-07-02T13:25:55;18.45;;;6.03;;
51943;SDS011;37969;53.132;6.370;2023-07-02T13:28:21;13.98;;;6.15;;
51943;SDS011;37969;53.132;6.370;2023-07-02T13:30:48;16.80;;;5.53;;
51943;SDS011;37969;53.132;6.370;2023-07-02T13:33:14;20.40;;;6.88;;
51943;SDS011;37969;53.132;6.370;2023-07-02T13:35:41;22.98;;;6.35;;
51943;SDS011;37969;53.132;6.370;2023-07-02T13:38:09;20.17;;;6.13;;
51943;SDS011;37969;53.132;6.370;2023-07-02T13:40:35;23.08;;;6.32;;
51943;SDS011;37969;53.132;6.370;2023-07-02T13:43:01;16.77;;;6.72;;
51943;SDS011;37969;53.132;6.370;2023-07-02T13:45:28;16.05;;;6.25;;
51943;SDS011;37969;53.132;6.370;2023-07-02T13:47:54;20.33;;;6.63;;
51943;SDS011;37969;53.132;6.370;2023-07-02T13:50:20;16.52;;;6.70;;
51943;SDS011;37969;53.132;6.370;2023-07-02T13:52:47;15.40;;;6.07;;
51943;SDS011;37969;53.132;6.370;2023-07-02T13:55:15;18.33;;;6.80;;
51943;SDS011;37969;53.132;6.370;2023-07-02T13:57:41;20.55;;;6.28;;
51943;SDS011;37969;53.132;6.370;2023-07-02T14:00:07;19.27;;;7.00;;
51943;SDS011;37969;53.132;6.370;2023-07-02T14:02:34;22.25;;;6.80;;
51943;SDS011;37969;53.132;6.370;2023-07-02T14:05:01;19.30;;;6.50;;
51943;SDS011;37969;53.132;6.370;2023-07-02T14:07:27;15.27;;;5.82;;
51943;SDS011;37969;53.132;6.370;2023-07-02T14:09:53;16.40;;;6.03;;
51943;SDS011;37969;53.132;6.370;2023-07-02T14:12:20;19.50;;;6.65;;
51943;SDS011;37969;53.132;6.370;2023-07-02T14:14:46;14.40;;;5.78;;
51943;SDS011;37969;53.132;6.370;2023-07-02T14:17:13;20.42;;;5.50;;
51943;SDS011;37969;53.132;6.370;2023-07-02T14:19:39;20.77;;;6.57;;
51943;SDS011;37969;53.132;6.370;2023-07-02T14:22:05;18.95;;;6.13;;
51943;SDS011;37969;53.132;6.370;2023-07-02T14:24:31;20.23;;;6.68;;
51943;SDS011;37969;53.132;6.370;2023-07-02T14:26:57;15.95;;;5.55;;